sensor_id;sensor_type;location;lat;lon;timestamp;P1;durP1;ratioP1;P2;durP2;ratioP2
5465;SDS011;2755;50.728;7.108;2022-08-01T00:01:16;1.57;;;1.10;;
5465;SDS011;2755;50.728;7.108;2022-08-01T00:03:42;1.73;;;1.23;;
5465;SDS011;2755;50.728;7.108;2022-08-01T00:06:07;1.20;;;1.00;;
5465;SDS011;2755;50.728;7.108;2022-08-01T00:08:33;1.33;;;1.00;;
5465;SDS011;2755;50.728;7.108;2022-08-01T00:10:59;1.47;;;0.80;;
5465;SDS011;2755;50.728;7.108;2022-08-01T00:13:24;3.33;;;1.10;;
5465;SDS011;2755;50.728;7.108;2022-08-01T00:15:50;1.47;;;1.17;;
5465;SDS011;2755;50.728;7.108;2022-08-01T00:18:16;2.70;;;1.27;;
5465;SDS011;2755;50.728;7.108;2022-08-01T00:20:41;2.17;;;1.20;;
5465;SDS011;2755;50.728;7.108;2022-08-01T00:23:07;3.87;;;1.20;;
5465;SDS011;2755;50.728;7.108;2022-08-01T00:25:32;1.23;;;0.97;;
5465;SDS011;2755;50.728;7.108;2022-08-01T00:27:58;2.67;;;1.30;;
5465;SDS011;2755;50.728;7.108;2022-08-01T00:30:24;1.20;;;0.77;;
5465;SDS011;2755;50.728;7.108;2022-08-01T00:32:50;2.17;;;1.20;;
5465;SDS011;2755;50.728;7.108;2022-08-01T00:35:15;6.17;;;1.10;;
5465;SDS011;2755;50.728;7.108;2022-08-01T00:37:41;2.10;;;1.10;;
5465;SDS011;2755;50.728;7.108;2022-08-01T00:40:07;2.57;;;1.27;;
5465;SDS011;2755;50.728;7.108;2022-08-01T00:42:33;2.10;;;1.20;;
5465;SDS011;2755;50.728;7.108;2022-08-01T00:44:58;1.97;;;1.00;;
5465;SDS011;2755;50.728;7.108;2022-08-01T00:47:24;1.80;;;1.07;;
5465;SDS011;2755;50.728;7.108;2022-08-01T00:49:50;4.70;;;1.43;;
5465;SDS011;2755;50.728;7.108;2022-08-01T00:52:16;2.23;;;1.07;;
5465;SDS011;2755;50.728;7.108;2022-08-01T00:54:41;1.77;;;1.07;;
5465;SDS011;2755;50.728;7.108;2022-08-01T00:57:08;2.60;;;1.10;;
5465;SDS011;2755;50.728;7.108;2022-08-01T00:59:34;2.10;;;1.47;;
5465;SDS011;2755;50.728;7.108;2022-08-01T01:02:00;4.73;;;1.00;;
5465;SDS011;2755;50.728;7.108;2022-08-01T01:04:26;6.20;;;1.47;;
5465;SDS011;2755;50.728;7.108;2022-08-01T01:09:58;5.23;;;1.00;;
5465;SDS011;2755;50.728;7.108;2022-08-01T01:18:09;2.43;;;1.60;;
5465;SDS011;2755;50.728;7.108;2022-08-01T01:20:42;3.53;;;1.10;;
5465;SDS011;2755;50.728;7.108;2022-08-01T01:26:27;1.70;;;1.07;;
5465;SDS011;2755;50.728;7.108;2022-08-01T01:34:35;1.40;;;1.30;;
5465;SDS011;2755;50.728;7.108;2022-08-01T01:37:04;2.37;;;1.30;;
5465;SDS011;2755;50.728;7.108;2022-08-01T01:39:34;3.67;;;1.80;;
5465;SDS011;2755;50.728;7.108;2022-08-01T01:42:01;2.37;;;1.20;;
5465;SDS011;2755;50.728;7.108;2022-08-01T01:44:29;3.10;;;1.60;;
5465;SDS011;2755;50.728;7.108;2022-08-01T01:46:56;1.47;;;1.33;;
5465;SDS011;2755;50.728;7.108;2022-08-01T01:49:23;1.80;;;1.30;;
5465;SDS011;2755;50.728;7.108;2022-08-01T01:51:51;5.60;;;1.67;;
5465;SDS011;2755;50.728;7.108;2022-08-01T01:54:19;3.43;;;1.43;;
5465;SDS011;2755;50.728;7.108;2022-08-01T01:56:46;3.87;;;1.70;;
5465;SDS011;2755;50.728;7.108;2022-08-01T01:59:15;4.27;;;1.57;;
5465;SDS011;2755;50.728;7.108;2022-08-01T02:01:45;2.03;;;1.20;;
5465;SDS011;2755;50.728;7.108;2022-08-01T02:04:13;2.40;;;1.20;;
5465;SDS011;2755;50.728;7.108;2022-08-01T02:06:39;1.50;;;0.90;;
5465;SDS011;2755;50.728;7.108;2022-08-01T02:09:07;1.83;;;1.50;;
5465;SDS011;2755;50.728;7.108;2022-08-01T02:11:35;2.33;;;1.20;;
5465;SDS011;2755;50.728;7.108;2022-08-01T02:14:02;5.73;;;1.10;;
5465;SDS011;2755;50.728;7.108;2022-08-01T02:16:31;1.90;;;0.87;;
5465;SDS011;2755;50.728;7.108;2022-08-01T02:18:59;1.30;;;1.03;;
5465;SDS011;2755;50.728;7.108;2022-08-01T02:21:37;1.60;;;1.33;;
5465;SDS011;2755;50.728;7.108;2022-08-01T02:24:10;2.03;;;1.33;;
5465;SDS011;2755;50.728;7.108;2022-08-01T02:26:46;1.47;;;1.00;;
5465;SDS011;2755;50.728;7.108;2022-08-01T02:29:17;4.13;;;1.10;;
5465;SDS011;2755;50.728;7.108;2022-08-01T02:31:53;2.90;;;1.50;;
5465;SDS011;2755;50.728;7.108;2022-08-01T02:34:19;1.30;;;1.00;;
5465;SDS011;2755;50.728;7.108;2022-08-01T02:36:47;2.20;;;1.53;;
5465;SDS011;2755;50.728;7.108;2022-08-01T02:39:14;1.60;;;1.50;;
5465;SDS011;2755;50.728;7.108;2022-08-01T02:41:45;2.07;;;1.30;;
5465;SDS011;2755;50.728;7.108;2022-08-01T02:44:35;2.80;;;1.40;;
5465;SDS011;2755;50.728;7.108;2022-08-01T02:47:03;3.30;;;1.50;;
5465;SDS011;2755;50.728;7.108;2022-08-01T02:49:33;2.17;;;1.20;;
5465;SDS011;2755;50.728;7.108;2022-08-01T02:52:04;1.93;;;1.60;;
5465;SDS011;2755;50.728;7.108;2022-08-01T02:54:32;3.87;;;1.73;;
5465;SDS011;2755;50.728;7.108;2022-08-01T02:56:59;2.97;;;1.47;;
5465;SDS011;2755;50.728;7.108;2022-08-01T02:59:27;1.77;;;1.20;;
5465;SDS011;2755;50.728;7.108;2022-08-01T03:01:55;2.30;;;1.30;;
5465;SDS011;2755;50.728;7.108;2022-08-01T03:04:21;1.83;;;1.17;;
5465;SDS011;2755;50.728;7.108;2022-08-01T03:06:48;2.37;;;1.50;;
5465;SDS011;2755;50.728;7.108;2022-08-01T03:09:15;2.00;;;1.50;;
5465;SDS011;2755;50.728;7.108;2022-08-01T03:11:41;2.57;;;1.27;;
5465;SDS011;2755;50.728;7.108;2022-08-01T03:14:09;3.07;;;1.63;;
5465;SDS011;2755;50.728;7.108;2022-08-01T03:16:37;4.50;;;1.60;;
5465;SDS011;2755;50.728;7.108;2022-08-01T03:19:04;1.87;;;1.50;;
5465;SDS011;2755;50.728;7.108;2022-08-01T03:21:33;4.10;;;1.27;;
5465;SDS011;2755;50.728;7.108;2022-08-01T03:24:00;2.30;;;1.20;;
5465;SDS011;2755;50.728;7.108;2022-08-01T03:26:28;2.07;;;1.30;;
5465;SDS011;2755;50.728;7.108;2022-08-01T03:28:57;1.50;;;1.40;;
5465;SDS011;2755;50.728;7.108;2022-08-01T03:31:26;2.10;;;1.33;;
5465;SDS011;2755;50.728;7.108;2022-08-01T03:33:53;3.87;;;1.53;;
5465;SDS011;2755;50.728;7.108;2022-08-01T03:36:21;3.13;;;1.30;;
5465;SDS011;2755;50.728;7.108;2022-08-01T03:38:55;1.80;;;1.40;;
5465;SDS011;2755;50.728;7.108;2022-08-01T03:41:25;2.87;;;1.50;;
5465;SDS011;2755;50.728;7.108;2022-08-01T03:43:57;4.23;;;1.23;;
5465;SDS011;2755;50.728;7.108;2022-08-01T03:46:28;3.60;;;1.57;;
5465;SDS011;2755;50.728;7.108;2022-08-01T03:48:58;1.80;;;1.20;;
5465;SDS011;2755;50.728;7.108;2022-08-01T03:51:28;3.57;;;1.83;;
5465;SDS011;2755;50.728;7.108;2022-08-01T03:53:56;2.00;;;1.80;;
5465;SDS011;2755;50.728;7.108;2022-08-01T03:56:25;3.63;;;1.63;;
5465;SDS011;2755;50.728;7.108;2022-08-01T03:58:52;4.60;;;2.10;;
5465;SDS011;2755;50.728;7.108;2022-08-01T04:01:18;3.20;;;1.97;;
5465;SDS011;2755;50.728;7.108;2022-08-01T04:03:44;3.20;;;1.77;;
5465;SDS011;2755;50.728;7.108;2022-08-01T04:06:11;4.90;;;1.80;;
5465;SDS011;2755;50.728;7.108;2022-08-01T04:08:39;3.50;;;2.07;;
5465;SDS011;2755;50.728;7.108;2022-08-01T04:11:07;2.40;;;2.00;;
5465;SDS011;2755;50.728;7.108;2022-08-01T04:13:33;3.00;;;2.13;;
5465;SDS011;2755;50.728;7.108;2022-08-01T04:15:59;4.13;;;2.03;;
5465;SDS011;2755;50.728;7.108;2022-08-01T04:18:25;3.00;;;2.27;;
5465;SDS011;2755;50.728;7.108;2022-08-01T04:20:51;4.40;;;1.83;;
5465;SDS011;2755;50.728;7.108;2022-08-01T04:23:17;2.83;;;2.00;;
5465;SDS011;2755;50.728;7.108;2022-08-01T04:25:47;3.13;;;1.90;;
5465;SDS011;2755;50.728;7.108;2022-08-01T04:28:14;3.77;;;2.00;;
5465;SDS011;2755;50.728;7.108;2022-08-01T04:30:42;2.90;;;2.03;;
5465;SDS011;2755;50.728;7.108;2022-08-01T04:33:10;3.73;;;2.47;;
5465;SDS011;2755;50.728;7.108;2022-08-01T04:35:41;5.30;;;2.10;;
5465;SDS011;2755;50.728;7.108;2022-08-01T04:38:10;2.73;;;1.90;;
5465;SDS011;2755;50.728;7.108;2022-08-01T04:40:39;4.20;;;1.87;;
5465;SDS011;2755;50.728;7.108;2022-08-01T04:43:05;3.03;;;2.13;;
5465;SDS011;2755;50.728;7.108;2022-08-01T04:45:32;2.60;;;2.07;;
5465;SDS011;2755;50.728;7.108;2022-08-01T04:47:59;2.67;;;1.93;;
5465;SDS011;2755;50.728;7.108;2022-08-01T04:50:25;8.20;;;4.20;;
5465;SDS011;2755;50.728;7.108;2022-08-01T04:52:51;4.30;;;2.40;;
5465;SDS011;2755;50.728;7.108;2022-08-01T04:55:17;5.20;;;2.50;;
5465;SDS011;2755;50.728;7.108;2022-08-01T04:57:44;2.13;;;1.90;;
5465;SDS011;2755;50.728;7.108;2022-08-01T05:00:11;3.07;;;2.47;;
5465;SDS011;2755;50.728;7.108;2022-08-01T05:02:37;7.13;;;3.20;;
5465;SDS011;2755;50.728;7.108;2022-08-01T05:05:03;3.27;;;2.40;;
5465;SDS011;2755;50.728;7.108;2022-08-01T05:07:31;2.50;;;2.30;;
5465;SDS011;2755;50.728;7.108;2022-08-01T05:09:57;5.17;;;2.30;;
5465;SDS011;2755;50.728;7.108;2022-08-01T05:12:23;5.57;;;2.73;;
5465;SDS011;2755;50.728;7.108;2022-08-01T05:14:49;5.13;;;2.70;;
5465;SDS011;2755;50.728;7.108;2022-08-01T05:17:15;3.63;;;2.43;;
5465;SDS011;2755;50.728;7.108;2022-08-01T05:19:41;3.67;;;2.90;;
5465;SDS011;2755;50.728;7.108;2022-08-01T05:22:08;5.63;;;2.57;;
5465;SDS011;2755;50.728;7.108;2022-08-01T05:24:35;5.20;;;3.30;;
5465;SDS011;2755;50.728;7.108;2022-08-01T05:27:03;4.00;;;2.60;;
5465;SDS011;2755;50.728;7.108;2022-08-01T05:29:29;3.20;;;2.50;;
5465;SDS011;2755;50.728;7.108;2022-08-01T05:31:58;3.20;;;2.37;;
5465;SDS011;2755;50.728;7.108;2022-08-01T05:34:24;4.63;;;2.80;;
5465;SDS011;2755;50.728;7.108;2022-08-01T05:36:50;3.50;;;3.00;;
5465;SDS011;2755;50.728;7.108;2022-08-01T05:39:16;3.20;;;2.37;;
5465;SDS011;2755;50.728;7.108;2022-08-01T05:41:42;4.80;;;3.50;;
5465;SDS011;2755;50.728;7.108;2022-08-01T05:44:08;7.73;;;3.43;;
5465;SDS011;2755;50.728;7.108;2022-08-01T05:46:34;5.20;;;4.10;;
5465;SDS011;2755;50.728;7.108;2022-08-01T05:49:00;5.13;;;4.00;;
5465;SDS011;2755;50.728;7.108;2022-08-01T05:51:26;7.77;;;4.00;;
5465;SDS011;2755;50.728;7.108;2022-08-01T05:53:53;4.10;;;3.57;;
5465;SDS011;2755;50.728;7.108;2022-08-01T05:56:19;4.47;;;3.83;;
5465;SDS011;2755;50.728;7.108;2022-08-01T05:58:45;9.77;;;3.97;;
5465;SDS011;2755;50.728;7.108;2022-08-01T06:01:11;5.60;;;3.70;;
5465;SDS011;2755;50.728;7.108;2022-08-01T06:03:37;5.47;;;4.27;;
5465;SDS011;2755;50.728;7.108;2022-08-01T06:06:03;10.13;;;4.53;;
5465;SDS011;2755;50.728;7.108;2022-08-01T06:08:29;7.13;;;3.97;;
5465;SDS011;2755;50.728;7.108;2022-08-01T06:10:55;8.10;;;4.90;;
5465;SDS011;2755;50.728;7.108;2022-08-01T06:13:22;7.07;;;4.27;;
5465;SDS011;2755;50.728;7.108;2022-08-01T06:15:48;7.13;;;4.43;;
5465;SDS011;2755;50.728;7.108;2022-08-01T06:18:14;5.30;;;4.13;;
5465;SDS011;2755;50.728;7.108;2022-08-01T06:20:40;10.07;;;4.03;;
5465;SDS011;2755;50.728;7.108;2022-08-01T06:23:06;9.10;;;4.90;;
5465;SDS011;2755;50.728;7.108;2022-08-01T06:25:32;7.73;;;4.73;;
5465;SDS011;2755;50.728;7.108;2022-08-01T06:27:58;12.10;;;5.30;;
5465;SDS011;2755;50.728;7.108;2022-08-01T06:30:24;9.90;;;5.00;;
5465;SDS011;2755;50.728;7.108;2022-08-01T06:32:49;6.70;;;5.13;;
5465;SDS011;2755;50.728;7.108;2022-08-01T06:35:15;7.30;;;4.87;;
5465;SDS011;2755;50.728;7.108;2022-08-01T06:37:41;10.33;;;5.33;;
5465;SDS011;2755;50.728;7.108;2022-08-01T06:40:08;7.13;;;4.17;;
5465;SDS011;2755;50.728;7.108;2022-08-01T06:42:35;6.57;;;3.97;;
5465;SDS011;2755;50.728;7.108;2022-08-01T06:45:04;5.20;;;4.50;;
5465;SDS011;2755;50.728;7.108;2022-08-01T06:47:31;6.57;;;3.90;;
5465;SDS011;2755;50.728;7.108;2022-08-01T06:49:56;10.93;;;5.17;;
5465;SDS011;2755;50.728;7.108;2022-08-01T06:52:22;9.10;;;4.43;;
5465;SDS011;2755;50.728;7.108;2022-08-01T06:54:48;6.37;;;4.70;;
5465;SDS011;2755;50.728;7.108;2022-08-01T06:57:14;7.40;;;4.57;;
5465;SDS011;2755;50.728;7.108;2022-08-01T06:59:39;12.27;;;4.70;;
5465;SDS011;2755;50.728;7.108;2022-08-01T07:02:05;8.30;;;5.00;;
5465;SDS011;2755;50.728;7.108;2022-08-01T07:04:32;5.17;;;4.00;;
5465;SDS011;2755;50.728;7.108;2022-08-01T07:06:58;6.10;;;4.20;;
5465;SDS011;2755;50.728;7.108;2022-08-01T07:09:24;7.37;;;4.37;;
5465;SDS011;2755;50.728;7.108;2022-08-01T07:11:50;7.60;;;4.47;;
5465;SDS011;2755;50.728;7.108;2022-08-01T07:14:17;11.20;;;4.67;;
5465;SDS011;2755;50.728;7.108;2022-08-01T07:16:43;6.23;;;4.10;;
5465;SDS011;2755;50.728;7.108;2022-08-01T07:19:09;6.20;;;4.60;;
5465;SDS011;2755;50.728;7.108;2022-08-01T07:21:35;6.57;;;4.67;;
5465;SDS011;2755;50.728;7.108;2022-08-01T07:24:01;9.53;;;4.47;;
5465;SDS011;2755;50.728;7.108;2022-08-01T07:26:27;5.00;;;3.83;;
5465;SDS011;2755;50.728;7.108;2022-08-01T07:28:53;8.30;;;4.50;;
5465;SDS011;2755;50.728;7.108;2022-08-01T07:31:20;6.70;;;4.97;;
5465;SDS011;2755;50.728;7.108;2022-08-01T07:33:45;8.13;;;5.37;;
5465;SDS011;2755;50.728;7.108;2022-08-01T07:36:11;9.10;;;4.97;;
5465;SDS011;2755;50.728;7.108;2022-08-01T07:38:37;10.90;;;5.57;;
5465;SDS011;2755;50.728;7.108;2022-08-01T07:41:03;9.07;;;5.07;;
5465;SDS011;2755;50.728;7.108;2022-08-01T07:43:28;6.00;;;4.40;;
5465;SDS011;2755;50.728;7.108;2022-08-01T07:45:54;9.53;;;5.77;;
5465;SDS011;2755;50.728;7.108;2022-08-01T07:48:20;8.23;;;3.90;;
5465;SDS011;2755;50.728;7.108;2022-08-01T07:50:48;5.20;;;3.70;;
5465;SDS011;2755;50.728;7.108;2022-08-01T07:53:15;6.87;;;4.47;;
5465;SDS011;2755;50.728;7.108;2022-08-01T07:55:40;6.10;;;4.17;;
5465;SDS011;2755;50.728;7.108;2022-08-01T07:58:06;5.57;;;4.00;;
5465;SDS011;2755;50.728;7.108;2022-08-01T08:00:32;10.03;;;5.47;;
5465;SDS011;2755;50.728;7.108;2022-08-01T08:02:58;7.70;;;4.27;;
5465;SDS011;2755;50.728;7.108;2022-08-01T08:05:24;5.77;;;3.80;;
5465;SDS011;2755;50.728;7.108;2022-08-01T08:07:51;5.40;;;4.17;;
5465;SDS011;2755;50.728;7.108;2022-08-01T08:10:16;7.70;;;3.73;;
5465;SDS011;2755;50.728;7.108;2022-08-01T08:12:42;5.70;;;3.57;;
5465;SDS011;2755;50.728;7.108;2022-08-01T08:15:08;5.03;;;3.90;;
5465;SDS011;2755;50.728;7.108;2022-08-01T08:17:34;3.93;;;3.50;;
5465;SDS011;2755;50.728;7.108;2022-08-01T08:20:00;4.43;;;3.57;;
5465;SDS011;2755;50.728;7.108;2022-08-01T08:22:27;6.03;;;3.70;;
5465;SDS011;2755;50.728;7.108;2022-08-01T08:24:53;7.43;;;3.27;;
5465;SDS011;2755;50.728;7.108;2022-08-01T08:27:19;6.43;;;3.97;;
5465;SDS011;2755;50.728;7.108;2022-08-01T08:29:44;5.87;;;3.40;;
5465;SDS011;2755;50.728;7.108;2022-08-01T08:32:11;5.40;;;3.30;;
5465;SDS011;2755;50.728;7.108;2022-08-01T08:34:37;4.20;;;3.33;;
5465;SDS011;2755;50.728;7.108;2022-08-01T08:37:03;4.80;;;3.47;;
5465;SDS011;2755;50.728;7.108;2022-08-01T08:39:28;8.30;;;3.60;;
5465;SDS011;2755;50.728;7.108;2022-08-01T08:41:56;4.17;;;3.13;;
5465;SDS011;2755;50.728;7.108;2022-08-01T08:44:24;5.57;;;3.40;;
5465;SDS011;2755;50.728;7.108;2022-08-01T08:46:51;3.90;;;3.00;;
5465;SDS011;2755;50.728;7.108;2022-08-01T08:49:24;6.40;;;3.40;;
5465;SDS011;2755;50.728;7.108;2022-08-01T08:51:52;3.17;;;2.90;;
5465;SDS011;2755;50.728;7.108;2022-08-01T08:54:19;3.43;;;2.83;;
5465;SDS011;2755;50.728;7.108;2022-08-01T08:56:47;5.43;;;2.90;;
5465;SDS011;2755;50.728;7.108;2022-08-01T08:59:14;3.23;;;2.37;;
5465;SDS011;2755;50.728;7.108;2022-08-01T09:01:40;3.33;;;2.57;;
5465;SDS011;2755;50.728;7.108;2022-08-01T09:04:06;4.87;;;2.90;;
5465;SDS011;2755;50.728;7.108;2022-08-01T09:06:32;5.17;;;3.03;;
5465;SDS011;2755;50.728;7.108;2022-08-01T09:08:58;3.67;;;2.30;;
5465;SDS011;2755;50.728;7.108;2022-08-01T09:11:24;4.97;;;2.67;;
5465;SDS011;2755;50.728;7.108;2022-08-01T09:14:04;4.80;;;2.37;;
5465;SDS011;2755;50.728;7.108;2022-08-01T09:16:40;3.60;;;2.53;;
5465;SDS011;2755;50.728;7.108;2022-08-01T09:19:08;7.30;;;2.47;;
5465;SDS011;2755;50.728;7.108;2022-08-01T09:21:57;3.93;;;2.63;;
5465;SDS011;2755;50.728;7.108;2022-08-01T09:24:25;4.30;;;2.10;;
5465;SDS011;2755;50.728;7.108;2022-08-01T09:26:52;3.13;;;2.27;;
5465;SDS011;2755;50.728;7.108;2022-08-01T09:29:20;2.10;;;1.63;;
5465;SDS011;2755;50.728;7.108;2022-08-01T09:31:46;4.00;;;2.20;;
5465;SDS011;2755;50.728;7.108;2022-08-01T09:34:12;3.33;;;1.90;;
5465;SDS011;2755;50.728;7.108;2022-08-01T09:39:13;3.50;;;2.40;;
5465;SDS011;2755;50.728;7.108;2022-08-01T09:41:39;6.73;;;2.03;;
5465;SDS011;2755;50.728;7.108;2022-08-01T09:44:05;4.60;;;3.00;;
5465;SDS011;2755;50.728;7.108;2022-08-01T09:46:31;3.43;;;1.97;;
5465;SDS011;2755;50.728;7.108;2022-08-01T09:49:01;3.17;;;2.13;;
5465;SDS011;2755;50.728;7.108;2022-08-01T09:51:37;3.40;;;2.10;;
5465;SDS011;2755;50.728;7.108;2022-08-01T09:54:05;5.10;;;2.37;;
5465;SDS011;2755;50.728;7.108;2022-08-01T09:59:04;3.00;;;1.80;;
5465;SDS011;2755;50.728;7.108;2022-08-01T10:04:16;2.93;;;1.93;;
5465;SDS011;2755;50.728;7.108;2022-08-01T10:06:46;2.60;;;2.20;;
5465;SDS011;2755;50.728;7.108;2022-08-01T10:09:25;2.03;;;1.60;;
5465;SDS011;2755;50.728;7.108;2022-08-01T10:11:53;5.57;;;1.90;;
5465;SDS011;2755;50.728;7.108;2022-08-01T10:14:20;4.67;;;2.10;;
5465;SDS011;2755;50.728;7.108;2022-08-01T10:16:47;1.87;;;1.67;;
5465;SDS011;2755;50.728;7.108;2022-08-01T10:19:14;2.17;;;1.60;;
5465;SDS011;2755;50.728;7.108;2022-08-01T10:21:40;2.27;;;2.07;;
5465;SDS011;2755;50.728;7.108;2022-08-01T10:24:06;3.40;;;1.83;;
5465;SDS011;2755;50.728;7.108;2022-08-01T10:26:34;6.87;;;1.67;;
5465;SDS011;2755;50.728;7.108;2022-08-01T10:29:02;2.30;;;1.63;;
5465;SDS011;2755;50.728;7.108;2022-08-01T10:31:29;1.67;;;1.40;;
5465;SDS011;2755;50.728;7.108;2022-08-01T10:33:58;2.57;;;1.50;;
5465;SDS011;2755;50.728;7.108;2022-08-01T10:36:25;1.87;;;1.40;;
5465;SDS011;2755;50.728;7.108;2022-08-01T10:38:51;3.60;;;2.13;;
5465;SDS011;2755;50.728;7.108;2022-08-01T10:41:19;4.90;;;2.20;;
5465;SDS011;2755;50.728;7.108;2022-08-01T10:43:47;7.23;;;2.10;;
5465;SDS011;2755;50.728;7.108;2022-08-01T10:46:13;6.20;;;3.10;;
5465;SDS011;2755;50.728;7.108;2022-08-01T10:48:41;4.10;;;2.60;;
5465;SDS011;2755;50.728;7.108;2022-08-01T10:51:08;5.67;;;2.43;;
5465;SDS011;2755;50.728;7.108;2022-08-01T10:53:35;6.50;;;2.77;;
5465;SDS011;2755;50.728;7.108;2022-08-01T10:56:02;7.60;;;3.27;;
5465;SDS011;2755;50.728;7.108;2022-08-01T10:58:32;4.80;;;2.90;;
5465;SDS011;2755;50.728;7.108;2022-08-01T11:03:43;2.47;;;2.03;;
5465;SDS011;2755;50.728;7.108;2022-08-01T11:06:22;3.20;;;2.77;;
5465;SDS011;2755;50.728;7.108;2022-08-01T11:08:50;3.20;;;2.57;;
5465;SDS011;2755;50.728;7.108;2022-08-01T11:11:17;3.07;;;2.30;;
5465;SDS011;2755;50.728;7.108;2022-08-01T11:16:36;4.20;;;2.70;;
5465;SDS011;2755;50.728;7.108;2022-08-01T11:19:04;9.33;;;2.40;;
5465;SDS011;2755;50.728;7.108;2022-08-01T11:30:21;4.57;;;1.93;;
5465;SDS011;2755;50.728;7.108;2022-08-01T11:32:32;2.30;;;1.90;;
5465;SDS011;2755;50.728;7.108;2022-08-01T11:34:58;7.43;;;2.13;;
5465;SDS011;2755;50.728;7.108;2022-08-01T11:37:28;3.50;;;2.93;;
5465;SDS011;2755;50.728;7.108;2022-08-01T11:42:46;2.80;;;2.37;;
5465;SDS011;2755;50.728;7.108;2022-08-01T11:45:13;2.87;;;2.50;;
5465;SDS011;2755;50.728;7.108;2022-08-01T11:47:48;2.63;;;2.17;;
5465;SDS011;2755;50.728;7.108;2022-08-01T11:53:01;2.03;;;1.83;;
5465;SDS011;2755;50.728;7.108;2022-08-01T11:55:28;4.00;;;2.10;;
5465;SDS011;2755;50.728;7.108;2022-08-01T11:58:07;7.23;;;2.53;;
5465;SDS011;2755;50.728;7.108;2022-08-01T12:00:33;3.60;;;2.33;;
5465;SDS011;2755;50.728;7.108;2022-08-01T12:03:00;4.50;;;2.67;;
5465;SDS011;2755;50.728;7.108;2022-08-01T12:05:28;6.40;;;3.17;;
5465;SDS011;2755;50.728;7.108;2022-08-01T12:07:56;3.80;;;3.00;;
5465;SDS011;2755;50.728;7.108;2022-08-01T12:10:29;4.93;;;2.80;;
5465;SDS011;2755;50.728;7.108;2022-08-01T12:13:05;4.43;;;3.10;;
5465;SDS011;2755;50.728;7.108;2022-08-01T12:15:35;3.60;;;2.77;;
5465;SDS011;2755;50.728;7.108;2022-08-01T12:18:03;6.10;;;2.60;;
5465;SDS011;2755;50.728;7.108;2022-08-01T12:20:32;4.87;;;2.27;;
5465;SDS011;2755;50.728;7.108;2022-08-01T12:23:04;4.53;;;2.47;;
5465;SDS011;2755;50.728;7.108;2022-08-01T12:25:33;6.13;;;2.70;;
5465;SDS011;2755;50.728;7.108;2022-08-01T12:28:00;3.90;;;2.40;;
5465;SDS011;2755;50.728;7.108;2022-08-01T12:30:27;3.13;;;2.57;;
5465;SDS011;2755;50.728;7.108;2022-08-01T12:32:53;2.80;;;2.47;;
5465;SDS011;2755;50.728;7.108;2022-08-01T12:35:21;3.70;;;2.70;;
5465;SDS011;2755;50.728;7.108;2022-08-01T12:42:45;4.03;;;2.87;;
5465;SDS011;2755;50.728;7.108;2022-08-01T12:45:18;5.03;;;2.67;;
5465;SDS011;2755;50.728;7.108;2022-08-01T12:47:45;3.27;;;2.20;;
5465;SDS011;2755;50.728;7.108;2022-08-01T12:50:16;4.10;;;2.30;;
5465;SDS011;2755;50.728;7.108;2022-08-01T12:52:43;3.60;;;2.60;;
5465;SDS011;2755;50.728;7.108;2022-08-01T12:55:11;4.30;;;1.90;;
5465;SDS011;2755;50.728;7.108;2022-08-01T12:57:39;2.23;;;2.00;;
5465;SDS011;2755;50.728;7.108;2022-08-01T13:00:07;2.57;;;2.20;;
5465;SDS011;2755;50.728;7.108;2022-08-01T13:02:34;3.70;;;2.00;;
5465;SDS011;2755;50.728;7.108;2022-08-01T13:05:00;7.33;;;2.20;;
5465;SDS011;2755;50.728;7.108;2022-08-01T13:07:40;2.63;;;2.10;;
5465;SDS011;2755;50.728;7.108;2022-08-01T13:10:06;2.87;;;1.77;;
5465;SDS011;2755;50.728;7.108;2022-08-01T13:12:33;2.70;;;1.83;;
5465;SDS011;2755;50.728;7.108;2022-08-01T13:14:58;2.37;;;2.07;;
5465;SDS011;2755;50.728;7.108;2022-08-01T13:17:31;2.37;;;1.80;;
5465;SDS011;2755;50.728;7.108;2022-08-01T13:19:58;3.77;;;2.00;;
5465;SDS011;2755;50.728;7.108;2022-08-01T13:22:34;3.73;;;1.77;;
5465;SDS011;2755;50.728;7.108;2022-08-01T13:25:10;3.57;;;2.23;;
5465;SDS011;2755;50.728;7.108;2022-08-01T13:27:36;4.57;;;2.00;;
5465;SDS011;2755;50.728;7.108;2022-08-01T13:30:15;3.77;;;2.10;;
5465;SDS011;2755;50.728;7.108;2022-08-01T13:33:00;1.60;;;1.50;;
5465;SDS011;2755;50.728;7.108;2022-08-01T13:35:26;1.97;;;1.57;;
5465;SDS011;2755;50.728;7.108;2022-08-01T13:37:52;2.40;;;2.00;;
5465;SDS011;2755;50.728;7.108;2022-08-01T13:40:25;3.20;;;1.60;;
5465;SDS011;2755;50.728;7.108;2022-08-01T13:42:52;2.90;;;1.50;;
5465;SDS011;2755;50.728;7.108;2022-08-01T13:45:20;2.20;;;1.90;;
5465;SDS011;2755;50.728;7.108;2022-08-01T13:47:46;2.20;;;2.00;;
5465;SDS011;2755;50.728;7.108;2022-08-01T13:50:11;3.53;;;2.63;;
5465;SDS011;2755;50.728;7.108;2022-08-01T13:52:37;5.87;;;2.43;;
5465;SDS011;2755;50.728;7.108;2022-08-01T13:55:03;3.50;;;2.50;;
5465;SDS011;2755;50.728;7.108;2022-08-01T13:57:29;4.53;;;2.13;;
5465;SDS011;2755;50.728;7.108;2022-08-01T13:59:55;3.20;;;2.23;;
5465;SDS011;2755;50.728;7.108;2022-08-01T14:02:24;6.60;;;2.60;;
5465;SDS011;2755;50.728;7.108;2022-08-01T14:04:51;6.23;;;2.60;;
5465;SDS011;2755;50.728;7.108;2022-08-01T14:07:17;3.03;;;2.23;;
5465;SDS011;2755;50.728;7.108;2022-08-01T14:09:42;3.50;;;2.10;;
5465;SDS011;2755;50.728;7.108;2022-08-01T14:12:08;5.20;;;2.60;;
5465;SDS011;2755;50.728;7.108;2022-08-01T14:14:33;5.67;;;1.97;;
5465;SDS011;2755;50.728;7.108;2022-08-01T14:16:59;2.70;;;2.20;;
5465;SDS011;2755;50.728;7.108;2022-08-01T14:19:26;5.17;;;2.70;;
5465;SDS011;2755;50.728;7.108;2022-08-01T14:21:51;3.37;;;2.40;;
5465;SDS011;2755;50.728;7.108;2022-08-01T14:24:17;3.13;;;2.10;;
5465;SDS011;2755;50.728;7.108;2022-08-01T14:26:43;6.70;;;2.57;;
5465;SDS011;2755;50.728;7.108;2022-08-01T14:29:08;4.93;;;1.97;;
5465;SDS011;2755;50.728;7.108;2022-08-01T14:31:34;7.13;;;2.30;;
5465;SDS011;2755;50.728;7.108;2022-08-01T14:34:00;3.17;;;2.10;;
5465;SDS011;2755;50.728;7.108;2022-08-01T14:36:26;4.93;;;2.00;;
5465;SDS011;2755;50.728;7.108;2022-08-01T14:38:52;3.40;;;1.73;;
5465;SDS011;2755;50.728;7.108;2022-08-01T14:41:18;4.27;;;1.80;;
5465;SDS011;2755;50.728;7.108;2022-08-01T14:43:43;1.97;;;1.60;;
5465;SDS011;2755;50.728;7.108;2022-08-01T14:46:09;2.20;;;1.80;;
5465;SDS011;2755;50.728;7.108;2022-08-01T14:48:36;7.10;;;1.57;;
5465;SDS011;2755;50.728;7.108;2022-08-01T14:51:02;2.40;;;1.50;;
5465;SDS011;2755;50.728;7.108;2022-08-01T14:53:27;4.87;;;1.43;;
5465;SDS011;2755;50.728;7.108;2022-08-01T14:55:53;1.70;;;1.60;;
5465;SDS011;2755;50.728;7.108;2022-08-01T14:58:19;1.83;;;1.70;;
5465;SDS011;2755;50.728;7.108;2022-08-01T15:00:45;1.83;;;1.40;;
5465;SDS011;2755;50.728;7.108;2022-08-01T15:03:11;6.13;;;1.83;;
5465;SDS011;2755;50.728;7.108;2022-08-01T15:05:37;2.10;;;1.77;;
5465;SDS011;2755;50.728;7.108;2022-08-01T15:08:03;3.57;;;1.97;;
5465;SDS011;2755;50.728;7.108;2022-08-01T15:10:31;4.43;;;1.73;;
5465;SDS011;2755;50.728;7.108;2022-08-01T15:12:58;2.00;;;1.80;;
5465;SDS011;2755;50.728;7.108;2022-08-01T15:15:25;2.50;;;1.70;;
5465;SDS011;2755;50.728;7.108;2022-08-01T15:17:51;2.10;;;1.67;;
5465;SDS011;2755;50.728;7.108;2022-08-01T15:20:18;3.27;;;1.87;;
5465;SDS011;2755;50.728;7.108;2022-08-01T15:22:44;2.40;;;1.70;;
5465;SDS011;2755;50.728;7.108;2022-08-01T15:25:10;2.77;;;1.70;;
5465;SDS011;2755;50.728;7.108;2022-08-01T15:27:36;3.20;;;1.30;;
5465;SDS011;2755;50.728;7.108;2022-08-01T15:30:02;4.03;;;1.50;;
5465;SDS011;2755;50.728;7.108;2022-08-01T15:32:29;2.70;;;1.30;;
5465;SDS011;2755;50.728;7.108;2022-08-01T15:34:54;4.77;;;1.47;;
5465;SDS011;2755;50.728;7.108;2022-08-01T15:37:20;5.30;;;1.53;;
5465;SDS011;2755;50.728;7.108;2022-08-01T15:39:47;1.90;;;1.33;;
5465;SDS011;2755;50.728;7.108;2022-08-01T15:42:13;1.40;;;1.30;;
5465;SDS011;2755;50.728;7.108;2022-08-01T15:44:40;2.23;;;1.00;;
5465;SDS011;2755;50.728;7.108;2022-08-01T15:47:06;1.50;;;1.20;;
5465;SDS011;2755;50.728;7.108;2022-08-01T15:49:33;2.73;;;1.20;;
5465;SDS011;2755;50.728;7.108;2022-08-01T15:52:02;3.23;;;1.33;;
5465;SDS011;2755;50.728;7.108;2022-08-01T15:54:31;1.73;;;1.30;;
5465;SDS011;2755;50.728;7.108;2022-08-01T15:56:57;1.10;;;1.00;;
5465;SDS011;2755;50.728;7.108;2022-08-01T15:59:24;2.03;;;1.30;;
5465;SDS011;2755;50.728;7.108;2022-08-01T16:01:49;2.00;;;1.13;;
5465;SDS011;2755;50.728;7.108;2022-08-01T16:04:16;1.40;;;1.00;;
5465;SDS011;2755;50.728;7.108;2022-08-01T16:06:43;1.63;;;0.83;;